sensor_id;sensor_type;location;lat;lon;timestamp;temperature;humidity
26049;DHT22;13822;51.568;5.086;2022-12-11T06:39:35;1.60;99.90
26049;DHT22;13822;51.568;5.086;2022-12-11T06:44:37;1.60;99.90
26049;DHT22;13822;51.568;5.086;2022-12-11T06:49:39;1.60;99.90
26049;DHT22;13822;51.568;5.086;2022-12-11T06:54:41;1.70;99.90
26049;DHT22;13822;51.568;5.086;2022-12-11T06:59:43;1.70;99.90
26049;DHT22;13822;51.568;5.086;2022-12-11T07:04:45;1.70;99.90
26049;DHT22;13822;51.568;5.086;2022-12-11T07:09:55;1.70;99.90
26049;DHT22;13822;51.568;5.086;2022-12-11T07:14:57;1.70;99.90
26049;DHT22;13822;51.568;5.086;2022-12-11T07:19:59;1.70;99.90
26049;DHT22;13822;51.568;5.086;2022-12-11T07:25:00;1.70;99.90
26049;DHT22;13822;51.568;5.086;2022-12-11T07:30:03;1.70;99.90
26049;DHT22;13822;51.568;5.086;2022-12-11T07:35:05;1.70;99.90
26049;DHT22;13822;51.568;5.086;2022-12-11T07:40:07;1.70;99.90
26049;DHT22;13822;51.568;5.086;2022-12-11T07:45:12;1.70;99.90
26049;DHT22;13822;51.568;5.086;2022-12-11T07:50:15;1.70;99.90
26049;DHT22;13822;51.568;5.086;2022-12-11T07:55:16;1.70;99.90
26049;DHT22;13822;51.568;5.086;2022-12-11T08:00:18;1.70;99.90
26049;DHT22;13822;51.568;5.086;2022-12-11T08:05:21;1.70;99.90
26049;DHT22;13822;51.568;5.086;2022-12-11T08:10:23;1.70;99.90
26049;DHT22;13822;51.568;5.086;2022-12-11T08:15:24;1.70;99.90
26049;DHT22;13822;51.568;5.086;2022-12-11T08:20:26;1.80;99.90
26049;DHT22;13822;51.568;5.086;2022-12-11T08:25:28;1.80;99.90
26049;DHT22;13822;51.568;5.086;2022-12-11T08:30:30;1.80;99.90
26049;DHT22;13822;51.568;5.086;2022-12-11T08:35:32;1.70;99.90
26049;DHT22;13822;51.568;5.086;2022-12-11T08:40:40;1.80;99.90
26049;DHT22;13822;51.568;5.086;2022-12-11T08:45:41;1.70;99.90
26049;DHT22;13822;51.568;5.086;2022-12-11T08:50:43;1.70;99.90
26049;DHT22;13822;51.568;5.086;2022-12-11T08:55:45;1.70;99.90
26049;DHT22;13822;51.568;5.086;2022-12-11T09:00:47;1.80;99.90
26049;DHT22;13822;51.568;5.086;2022-12-11T09:05:49;1.80;99.90
26049;DHT22;13822;51.568;5.086;2022-12-11T09:10:51;1.80;99.90
26049;DHT22;13822;51.568;5.086;2022-12-11T09:15:53;1.70;99.90
26049;DHT22;13822;51.568;5.086;2022-12-11T09:20:59;1.80;99.90
26049;DHT22;13822;51.568;5.086;2022-12-11T09:26:06;1.80;99.90
26049;DHT22;13822;51.568;5.086;2022-12-11T09:31:16;1.80;99.90
26049;DHT22;13822;51.568;5.086;2022-12-11T09:36:19;1.80;99.90
26049;DHT22;13822;51.568;5.086;2022-12-11T09:46:23;1.80;99.90
26049;DHT22;13822;51.568;5.086;2022-12-11T09:51:35;1.80;99.90
26049;DHT22;13822;51.568;5.086;2022-12-11T09:56:44;1.80;99.90
26049;DHT22;13822;51.568;5.086;2022-12-11T10:18:03;1.90;99.90
26049;DHT22;13822;51.568;5.086;2022-12-11T10:23:08;1.90;99.90
26049;DHT22;13822;51.568;5.086;2022-12-11T10:28:18;1.90;99.90
26049;DHT22;13822;51.568;5.086;2022-12-11T10:33:22;1.90;99.90
26049;DHT22;13822;51.568;5.086;2022-12-11T10:38:33;1.90;99.90
26049;DHT22;13822;51.568;5.086;2022-12-11T10:43:45;1.90;99.90
26049;DHT22;13822;51.568;5.086;2022-12-11T10:48:54;2.00;99.90
26049;DHT22;13822;51.568;5.086;2022-12-11T10:54:07;2.00;99.90
26049;DHT22;13822;51.568;5.086;2022-12-11T10:59:46;2.00;99.90
26049;DHT22;13822;51.568;5.086;2022-12-11T11:04:50;2.00;99.90
26049;DHT22;13822;51.568;5.086;2022-12-11T11:15:18;2.10;99.90
26049;DHT22;13822;51.568;5.086;2022-12-11T11:20:28;2.20;99.90
26049;DHT22;13822;51.568;5.086;2022-12-11T11:25:31;2.20;99.90
26049;DHT22;13822;51.568;5.086;2022-12-11T11:30:40;2.20;99.90
26049;DHT22;13822;51.568;5.086;2022-12-11T11:35:56;2.20;99.90
26049;DHT22;13822;51.568;5.086;2022-12-11T11:41:36;2.20;99.90
26049;DHT22;13822;51.568;5.086;2022-12-11T11:46:43;2.30;99.90
26049;DHT22;13822;51.568;5.086;2022-12-11T11:57:22;2.40;99.90
26049;DHT22;13822;51.568;5.086;2022-12-11T12:02:27;2.40;99.90
26049;DHT22;13822;51.568;5.086;2022-12-11T12:07:37;2.40;99.90
26049;DHT22;13822;51.568;5.086;2022-12-11T12:12:45;2.40;99.90
26049;DHT22;13822;51.568;5.086;2022-12-11T12:17:55;2.40;99.90
26049;DHT22;13822;51.568;5.086;2022-12-11T12:23:05;2.40;99.90
26049;DHT22;13822;51.568;5.086;2022-12-11T12:33:44;2.40;99.90
26049;DHT22;13822;51.568;5.086;2022-12-11T12:44:46;2.50;99.90
26049;DHT22;13822;51.568;5.086;2022-12-11T12:49:55;2.50;99.90
26049;DHT22;13822;51.568;5.086;2022-12-11T12:55:02;2.50;99.90
26049;DHT22;13822;51.568;5.086;2022-12-11T13:05:33;2.40;99.90
26049;DHT22;13822;51.568;5.086;2022-12-11T13:10:36;2.40;99.90
26049;DHT22;13822;51.568;5.086;2022-12-11T13:15:41;2.40;99.90
26049;DHT22;13822;51.568;5.086;2022-12-11T13:20:46;2.40;99.90
26049;DHT22;13822;51.568;5.086;2022-12-11T13:25:52;2.40;99.90
26049;DHT22;13822;51.568;5.086;2022-12-11T13:41:24;2.30;99.90
26049;DHT22;13822;51.568;5.086;2022-12-11T13:46:28;2.30;99.90
26049;DHT22;13822;51.568;5.086;2022-12-11T13:51:33;2.30;99.90
26049;DHT22;13822;51.568;5.086;2022-12-11T13:56:36;2.30;99.90
26049;DHT22;13822;51.568;5.086;2022-12-11T14:01:38;2.20;99.90
26049;DHT22;13822;51.568;5.086;2022-12-11T14:06:40;2.20;99.90
26049;DHT22;13822;51.568;5.086;2022-12-11T14:11:42;2.20;99.90
26049;DHT22;13822;51.568;5.086;2022-12-11T14:16:46;2.20;99.90
26049;DHT22;13822;51.568;5.086;2022-12-11T14:22:00;2.10;99.90
26049;DHT22;13822;51.568;5.086;2022-12-11T14:27:11;2.10;99.90
26049;DHT22;13822;51.568;5.086;2022-12-11T14:32:25;2.00;99.90
26049;DHT22;13822;51.568;5.086;2022-12-11T14:37:42;2.10;99.90
26049;DHT22;13822;51.568;5.086;2022-12-11T14:42:45;2.00;99.90
26049;DHT22;13822;51.568;5.086;2022-12-11T14:47:50;2.00;99.90
26049;DHT22;13822;51.568;5.086;2022-12-11T14:52:58;2.00;99.90
26049;DHT22;13822;51.568;5.086;2022-12-11T14:58:06;2.00;99.90
26049;DHT22;13822;51.568;5.086;2022-12-11T15:03:20;2.00;99.90
26049;DHT22;13822;51.568;5.086;2022-12-11T15:08:31;1.90;99.90
26049;DHT22;13822;51.568;5.086;2022-12-11T15:13:35;1.90;99.90
26049;DHT22;13822;51.568;5.086;2022-12-11T15:18:40;1.90;99.90
26049;DHT22;13822;51.568;5.086;2022-12-11T15:23:50;1.80;99.90
26049;DHT22;13822;51.568;5.086;2022-12-11T15:28:58;1.80;99.90
26049;DHT22;13822;51.568;5.086;2022-12-11T15:34:00;1.80;99.90
26049;DHT22;13822;51.568;5.086;2022-12-11T15:39:03;1.80;99.90
26049;DHT22;13822;51.568;5.086;2022-12-11T15:44:14;1.80;99.90
26049;DHT22;13822;51.568;5.086;2022-12-11T15:49:18;1.80;99.90
